Time;durP1;ratioP1;P1;durP2;ratioP2;P2;SDS_P1;SDS_P2;PMS_P1;PMS_P2;Temp;Humidity;BMP_temperature;BMP_pressure;BME280_temperature;BME280_humidity;BME280_pressure;Samples;Min_cycle;Max_cycle;Signal;HPM_P1;HPM_P2
2022/04/09 00:00:58;;;;;;;5.45;0.50;;;;;;;19.41;51.00;98967.44;4985277;28;20128;-47
2022/04/09 00:03:23;;;;;;;3.17;0.40;;;;;;;19.40;51.09;98968.47;4987724;28;20062;-47
2022/04/09 00:05:49;;;;;;;4.80;0.47;;;;;;;19.41;51.06;98966.63;4985547;28;20489;-54
2022/04/09 00:08:15;;;;;;;3.88;0.52;;;;;;;19.40;50.84;98967.69;4986677;28;20034;-50
2022/04/09 00:10:40;;;;;;;2.08;0.30;;;;;;;19.39;50.95;98964.25;4986932;28;20478;-53
2022/04/09 00:13:06;;;;;;;2.67;0.60;;;;;;;19.40;50.97;98962.41;4984880;28;20098;-51
2022/04/09 00:15:31;;;;;;;3.58;0.40;;;;;;;19.37;51.02;98953.13;4985099;28;20034;-54
2022/04/09 00:17:57;;;;;;;3.08;0.50;;;;;;;19.37;50.89;98950.50;4987390;28;20030;-52
2022/04/09 00:20:23;;;;;;;3.10;0.50;;;;;;;19.37;50.93;98950.50;4986662;28;20041;-55
2022/04/09 00:22:48;;;;;;;4.30;0.70;;;;;;;19.36;50.83;98948.91;4986051;28;20041;-52
2022/04/09 00:25:21;;;;;;;2.38;0.40;;;;;;;19.37;50.88;98939.13;4985655;28;20109;-53
2022/04/09 00:27:47;;;;;;;3.05;0.70;;;;;;;19.34;51.06;98940.41;4986732;28;20129;-54
2022/04/09 00:30:12;;;;;;;4.25;0.43;;;;;;;19.34;50.95;98931.69;4982573;28;20034;-52
2022/04/09 00:32:38;;;;;;;3.55;0.93;;;;;;;19.34;50.83;98932.50;4985651;28;20034;-50
2022/04/09 00:35:05;;;;;;;3.47;0.60;;;;;;;19.33;50.98;98928.25;4990482;28;20030;-57
2022/04/09 00:37:31;;;;;;;4.10;1.10;;;;;;;19.33;51.08;98930.88;4986241;28;20078;-49
2022/04/09 00:39:57;;;;;;;3.53;0.57;;;;;;;19.32;50.98;98924.00;4989607;28;20042;-55
2022/04/09 00:42:22;;;;;;;2.70;0.40;;;;;;;19.32;50.91;98928.47;4990124;28;20030;-52
2022/04/09 00:44:49;;;;;;;3.53;0.40;;;;;;;19.32;50.90;98924.00;4987593;28;20030;-53
2022/04/09 00:47:16;;;;;;;2.10;0.32;;;;;;;19.32;50.91;98918.72;4988396;28;20040;-49
2022/04/09 00:49:41;;;;;;;3.33;0.30;;;;;;;19.32;50.71;98913.44;4990674;28;20449;-49
2022/04/09 00:52:09;;;;;;;1.83;0.40;;;;;;;19.32;50.76;98905.53;4988090;28;20498;-52
2022/04/09 00:54:39;;;;;;;2.72;0.50;;;;;;;19.32;50.88;98908.16;4990149;28;20034;-45
2022/04/09 00:57:06;;;;;;;3.08;0.50;;;;;;;19.34;50.74;98908.72;4990082;28;20042;-51
2022/04/09 00:59:35;;;;;;;3.33;0.30;;;;;;;19.34;50.98;98890.25;4988321;28;20050;-60
2022/04/09 01:02:00;;;;;;;4.85;0.55;;;;;;;19.34;50.82;98898.16;4978431;28;20041;-56
2022/04/09 01:04:27;;;;;;;4.85;0.57;;;;;;;19.35;50.67;98906.88;4990223;28;20471;-49
2022/04/09 01:06:53;;;;;;;3.33;0.73;;;;;;;19.36;50.70;98895.28;4989030;28;20076;-50
2022/04/09 01:09:18;;;;;;;3.88;0.30;;;;;;;19.35;50.89;98894.47;4990528;28;20057;-54
2022/04/09 01:11:44;;;;;;;3.72;0.40;;;;;;;19.35;50.89;98883.13;4982882;28;20536;-48
2022/04/09 01:14:13;;;;;;;4.25;0.40;;;;;;;19.34;50.68;98892.88;4987034;28;20091;-57
2022/04/09 01:16:39;;;;;;;2.97;0.30;;;;;;;19.35;50.76;98885.75;4986803;28;20089;-49
2022/04/09 01:19:05;;;;;;;3.72;0.50;;;;;;;19.35;50.84;98875.19;4987905;28;20097;-54
2022/04/09 01:21:31;;;;;;;3.58;0.47;;;;;;;19.35;50.72;98886.56;4988991;28;20641;-47
2022/04/09 01:23:57;;;;;;;3.08;0.50;;;;;;;19.33;50.75;98883.34;4988635;28;20045;-59
2022/04/09 01:26:23;;;;;;;4.25;0.60;;;;;;;19.34;50.66;98884.97;4990006;28;20488;-51
2022/04/09 01:28:49;;;;;;;5.03;0.60;;;;;;;19.33;50.80;98883.34;4985871;28;20022;-59
2022/04/09 01:31:18;;;;;;;3.55;0.50;;;;;;;19.32;50.74;98879.13;4988565;28;20037;-47
2022/04/09 01:33:44;;;;;;;1.73;0.40;;;;;;;19.32;50.58;98887.03;4988594;28;20026;-56
2022/04/09 01:36:10;;;;;;;4.60;0.50;;;;;;;19.31;50.66;98874.88;4988422;28;20474;-61
2022/04/09 01:38:36;;;;;;;3.92;0.57;;;;;;;19.31;50.78;98880.16;4989035;28;20061;-51
2022/04/09 01:41:02;;;;;;;3.60;0.65;;;;;;;19.30;50.83;98875.91;4981172;28;20030;-55
2022/04/09 01:43:28;;;;;;;4.53;0.40;;;;;;;19.30;50.62;98872.47;4987415;28;20049;-56
2022/04/09 01:45:54;;;;;;;3.38;0.50;;;;;;;19.28;50.73;98864.78;4987883;28;20061;-54
2022/04/09 01:48:20;;;;;;;3.13;0.45;;;;;;;19.28;50.49;98866.63;4987786;28;20034;-54
2022/04/09 01:50:46;;;;;;;3.10;0.57;;;;;;;19.29;50.50;98873.50;4988642;28;20482;-51
2022/04/09 01:53:11;;;;;;;2.63;0.40;;;;;;;19.28;50.71;98870.06;4988482;28;20030;-55
2022/04/09 01:55:37;;;;;;;3.00;0.50;;;;;;;19.28;50.57;98867.44;4984201;28;20042;-52
2022/04/09 01:58:03;;;;;;;4.82;0.65;;;;;;;19.28;50.47;98856.06;4986866;28;20030;-51
2022/04/09 02:00:29;;;;;;;3.53;0.63;;;;;;;19.28;50.55;98851.59;4989258;28;20088;-55
2022/04/09 02:02:55;;;;;;;3.22;0.55;;;;;;;19.27;50.59;98857.91;4987035;28;20066;-51
2022/04/09 02:05:20;;;;;;;3.22;0.50;;;;;;;19.28;50.46;98853.44;4989328;28;20030;-47
2022/04/09 02:07:47;;;;;;;5.18;0.45;;;;;;;19.27;50.65;98868.47;4988663;28;20018;-58
2022/04/09 02:12:48;;;;;;;3.22;0.40;;;;;;;19.27;50.50;98859.75;5207763;23;20065;-56
2022/04/09 02:15:16;;;;;;;2.47;0.30;;;;;;;19.26;50.53;98856.31;5008019;28;20040;-54
2022/04/09 02:17:42;;;;;;;5.53;0.40;;;;;;;19.26;50.59;98855.50;5008294;28;20382;-51
2022/04/09 02:20:10;;;;;;;5.07;0.55;;;;;;;19.25;50.52;98854.69;5008092;28;20077;-46
2022/04/09 02:22:42;;;;;;;3.75;0.50;;;;;;;19.24;50.50;98842.53;5008095;28;20389;-49
2022/04/09 02:25:13;;;;;;;3.72;0.60;;;;;;;19.24;50.60;98842.53;5008130;28;20136;-53
2022/04/09 02:27:38;;;;;;;3.35;0.40;;;;;;;19.24;50.46;98845.19;5008322;28;20042;-54
2022/04/09 02:30:06;;;;;;;2.85;0.32;;;;;;;19.24;50.38;98839.91;5007978;28;20164;-51
2022/04/09 02:32:52;;;;;;;3.17;0.50;;;;;;;19.21;50.46;98840.38;5006623;28;20042;-45
2022/04/09 02:35:19;;;;;;;5.00;0.50;;;;;;;19.21;50.52;98853.56;5008460;28;20029;-49
2022/04/09 02:37:45;;;;;;;2.85;0.85;;;;;;;19.21;50.71;98837.75;5022961;28;20042;-62
2022/04/09 02:40:11;;;;;;;3.03;0.55;;;;;;;19.21;50.56;98843.03;5007990;28;20392;-60
2022/04/09 02:42:40;;;;;;;4.22;0.85;;;;;;;19.21;50.46;98829.81;5023110;28;20026;-48
2022/04/09 02:45:09;;;;;;;5.20;0.57;;;;;;;19.20;50.46;98828.22;5008141;28;20026;-49
2022/04/09 02:47:35;;;;;;;4.35;0.38;;;;;;;19.20;50.55;98830.84;5007912;28;20076;-47
2022/04/09 02:50:01;;;;;;;4.13;0.50;;;;;;;19.20;50.52;98820.28;5007955;28;20026;-58
2022/04/09 02:52:31;;;;;;;2.50;0.40;;;;;;;19.21;50.46;98821.91;5007972;28;20037;-48
2022/04/09 02:54:57;;;;;;;3.28;0.40;;;;;;;19.22;50.43;98841.97;5008270;28;20026;-55
2022/04/09 02:57:22;;;;;;;3.92;0.50;;;;;;;19.22;50.46;98836.69;5007870;28;20103;-54
2022/04/09 02:59:48;;;;;;;3.60;0.52;;;;;;;19.23;50.33;98833.03;5007742;28;20159;-54
2022/04/09 03:02:14;;;;;;;3.58;0.40;;;;;;;19.23;50.39;98838.28;5007851;28;20037;-55
2022/04/09 03:04:39;;;;;;;6.20;0.60;;;;;;;19.24;50.24;98842.53;5007526;28;20030;-54
2022/04/09 03:07:05;;;;;;;3.08;0.30;;;;;;;19.25;50.41;98853.91;5007511;28;20033;-61
2022/04/09 03:09:30;;;;;;;3.50;0.80;;;;;;;19.25;50.45;98854.69;5007621;28;20025;-53
2022/04/09 03:11:55;;;;;;;2.65;0.30;;;;;;;19.25;50.33;98849.41;5007428;28;20531;-53
2022/04/09 03:14:21;;;;;;;2.25;0.40;;;;;;;19.26;50.31;98850.22;5022410;28;20049;-60
2022/04/09 03:16:46;;;;;;;2.90;0.47;;;;;;;19.25;50.15;98852.06;5007656;28;20076;-58
2022/04/09 03:19:12;;;;;;;5.40;0.50;;;;;;;19.24;50.17;98855.75;5006157;28;20038;-51
2022/04/09 03:21:37;;;;;;;4.03;0.70;;;;;;;19.24;50.30;98850.47;5006458;28;20111;-51
2022/04/09 03:24:03;;;;;;;4.45;0.43;;;;;;;19.24;50.18;98847.81;5007314;28;20032;-52
2022/04/09 03:26:28;;;;;;;4.60;0.57;;;;;;;19.23;50.22;98846.22;5006496;28;20030;-56
2022/04/09 03:28:54;;;;;;;4.20;0.40;;;;;;;19.23;50.33;98839.09;5007285;28;20069;-53
2022/04/09 03:31:19;;;;;;;3.70;0.60;;;;;;;19.22;50.36;98839.34;5007231;28;20030;-50
2022/04/09 03:33:47;;;;;;;2.63;0.47;;;;;;;19.22;50.21;98839.34;5007105;28;20057;-52
2022/04/09 03:36:12;;;;;;;2.17;0.30;;;;;;;19.21;50.36;98827.97;5006189;28;20095;-52
2022/04/09 03:38:40;;;;;;;3.88;0.52;;;;;;;19.20;50.40;98829.00;4990129;28;20034;-51
2022/04/09 03:41:06;;;;;;;2.13;0.50;;;;;;;19.20;50.36;98821.09;4987674;28;20054;-55
2022/04/09 03:43:31;;;;;;;5.22;0.52;;;;;;;19.20;50.34;98820.28;4987588;28;20068;-47
2022/04/09 03:45:57;;;;;;;1.83;0.30;;;;;;;19.19;50.34;98819.50;4987752;28;20393;-51
2022/04/09 03:48:22;;;;;;;2.35;0.30;;;;;;;19.18;50.24;98812.63;5004359;28;20448;-52
2022/04/09 03:50:47;;;;;;;4.75;0.60;;;;;;;19.17;50.32;98811.00;5006912;28;20112;-54
2022/04/09 03:53:19;;;;;;;4.18;0.60;;;;;;;19.17;50.30;98803.09;5006773;28;20033;-48
2022/04/09 03:55:45;;;;;;;2.30;0.35;;;;;;;19.17;50.39;98797.00;5007207;28;20567;-49
2022/04/09 03:58:10;;;;;;;1.98;0.30;;;;;;;19.17;50.32;98799.66;5004951;28;20069;-58
2022/04/09 04:00:36;;;;;;;4.03;0.65;;;;;;;19.17;50.27;98804.94;5006832;28;20026;-50
2022/04/09 04:03:01;;;;;;;3.58;0.50;;;;;;;19.16;50.21;98792.78;5004662;28;20125;-51
2022/04/09 04:05:27;;;;;;;2.40;0.70;;;;;;;19.17;50.22;98795.19;5007164;28;20060;-51
2022/04/09 04:07:53;;;;;;;4.70;0.50;;;;;;;19.16;50.44;98793.56;5007537;28;20633;-54
2022/04/09 04:10:19;;;;;;;2.35;0.35;;;;;;;19.17;50.32;98778.53;5024938;28;20022;-54
2022/04/09 04:12:44;;;;;;;2.63;0.60;;;;;;;19.16;50.32;98782.22;5001955;28;20076;-45
2022/04/09 04:15:10;;;;;;;4.57;0.45;;;;;;;19.17;50.23;98786.47;5009189;28;20113;-50
2022/04/09 04:17:43;;;;;;;3.45;0.43;;;;;;;19.15;50.47;98777.97;5010718;28;20342;-53
2022/04/09 04:20:11;;;;;;;4.35;0.70;;;;;;;19.16;50.35;98771.66;5005074;28;20096;-51
2022/04/09 04:22:37;;;;;;;2.22;0.50;;;;;;;19.15;50.39;98770.84;5011123;28;20392;-55
2022/04/09 04:25:06;;;;;;;2.88;0.45;;;;;;;19.15;50.27;98764.78;5010631;28;20038;-55
2022/04/09 04:27:32;;;;;;;3.53;0.47;;;;;;;19.15;50.25;98762.13;5009890;28;20088;-51
2022/04/09 04:30:03;;;;;;;3.33;0.40;;;;;;;19.15;50.31;98762.13;5010220;28;20037;-51
2022/04/09 04:32:28;;;;;;;3.00;0.40;;;;;;;19.14;50.38;98757.91;5009424;28;20080;-52
2022/04/09 04:34:54;;;;;;;3.10;0.40;;;;;;;19.13;50.40;98767.66;5010672;28;20034;-57
2022/04/09 04:37:19;;;;;;;2.15;0.32;;;;;;;19.14;50.25;98769.25;5007673;28;20025;-57
2022/04/09 04:39:45;;;;;;;3.13;0.40;;;;;;;19.13;50.34;98767.66;5008904;28;20037;-49
2022/04/09 04:42:10;;;;;;;3.80;0.40;;;;;;;19.12;50.24;98765.25;5008502;28;20026;-49
2022/04/09 04:44:36;;;;;;;1.92;0.50;;;;;;;19.11;50.21;98769.75;5005173;28;20651;-60
2022/04/09 04:47:02;;;;;;;2.95;0.50;;;;;;;19.12;50.60;98768.69;5009454;28;20464;-55
2022/04/09 04:49:28;;;;;;;2.05;0.30;;;;;;;19.12;50.39;98766.06;4997027;28;20617;-51
2022/04/09 04:51:53;;;;;;;2.67;0.57;;;;;;;19.12;50.31;98766.06;4996875;28;20038;-57
2022/04/09 04:54:19;;;;;;;2.25;0.50;;;;;;;19.13;50.32;98762.38;5005963;28;20477;-54
2022/04/09 04:56:44;;;;;;;2.50;0.32;;;;;;;19.14;50.25;98763.19;5003960;28;20068;-51
2022/04/09 04:59:09;;;;;;;2.42;0.30;;;;;;;19.15;50.26;98767.41;5004878;28;20034;-54
2022/04/09 05:01:37;;;;;;;2.63;0.40;;;;;;;19.15;50.31;98760.31;5006400;28;20090;-55
2022/04/09 05:04:04;;;;;;;2.15;0.35;;;;;;;19.13;50.17;98757.09;5008527;28;20069;-57
2022/04/09 05:06:29;;;;;;;3.05;0.30;;;;;;;19.15;50.47;98760.31;5003231;28;20038;-50
2022/04/09 05:08:55;;;;;;;3.90;0.40;;;;;;;19.17;50.46;98762.69;5010372;28;20065;-56
2022/04/09 05:11:21;;;;;;;3.28;0.30;;;;;;;19.17;50.46;98754.78;5006076;28;20041;-54
2022/04/09 05:13:47;;;;;;;1.98;0.40;;;;;;;19.17;50.37;98762.69;5006783;28;20117;-50
2022/04/09 05:16:13;;;;;;;2.58;0.32;;;;;;;19.18;50.46;98766.94;5001746;28;20038;-55
2022/04/09 05:18:39;;;;;;;3.97;0.50;;;;;;;19.17;50.35;98774.06;5007493;28;20029;-53
2022/04/09 05:21:04;;;;;;;5.22;0.30;;;;;;;19.16;50.35;98772.47;5006929;28;20041;-51
2022/04/09 05:23:29;;;;;;;2.65;0.40;;;;;;;19.16;50.40;98775.09;5008875;28;20030;-57
2022/04/09 05:25:55;;;;;;;3.70;0.35;;;;;;;19.16;50.44;98774.28;5008122;28;20031;-59
2022/04/09 05:28:20;;;;;;;1.85;0.38;;;;;;;19.15;50.40;98781.41;5008942;28;20073;-52
2022/04/09 05:30:46;;;;;;;3.03;0.40;;;;;;;19.16;50.46;98784.84;5003210;28;20045;-50
2022/04/09 05:33:12;;;;;;;3.88;0.50;;;;;;;19.15;50.35;98784.06;4999099;28;20033;-51
2022/04/09 05:35:37;;;;;;;2.10;0.38;;;;;;;19.15;50.36;98791.19;5008379;28;20100;-54
2022/04/09 05:38:03;;;;;;;1.85;0.38;;;;;;;19.14;50.44;98789.56;5006978;28;20136;-57
2022/04/09 05:40:29;;;;;;;6.15;0.70;;;;;;;19.14;50.33;98795.66;5006329;28;20092;-55
2022/04/09 05:42:55;;;;;;;3.30;0.57;;;;;;;19.13;50.41;98787.97;5007319;28;20576;-53
2022/04/09 05:45:21;;;;;;;4.75;0.38;;;;;;;19.13;50.41;98799.34;5007208;28;20129;-53
2022/04/09 05:47:47;;;;;;;2.55;0.40;;;;;;;19.13;50.41;98793.25;5007359;28;20113;-45
2022/04/09 05:50:13;;;;;;;3.95;0.50;;;;;;;19.14;50.56;98805.41;5008014;28;20486;-51
2022/04/09 05:52:40;;;;;;;2.90;0.35;;;;;;;19.12;50.42;98803.00;5009475;28;20045;-48
2022/04/09 05:55:06;;;;;;;3.38;0.40;;;;;;;19.10;50.59;98810.38;5004259;28;20038;-48
2022/04/09 05:57:33;;;;;;;2.45;0.52;;;;;;;19.11;50.47;98817.25;5006881;28;20176;-56
2022/04/09 05:59:59;;;;;;;3.42;0.63;;;;;;;19.12;50.54;98820.69;5006505;28;20041;-55
2022/04/09 06:02:25;;;;;;;3.10;0.50;;;;;;;19.10;50.46;98823.56;5007895;28;20030;-50
2022/04/09 06:04:51;;;;;;;4.07;0.50;;;;;;;19.10;50.38;98820.13;4998913;28;20078;-53
2022/04/09 06:07:17;;;;;;;2.85;0.40;;;;;;;19.09;50.42;98829.09;5003017;28;20025;-50
2022/04/09 06:09:44;;;;;;;4.40;0.60;;;;;;;19.09;50.48;98829.88;5008310;28;20085;-46
2022/04/09 06:12:10;;;;;;;5.03;0.50;;;;;;;19.09;50.50;98829.09;5003049;28;20051;-56
2022/04/09 06:14:35;;;;;;;3.70;0.60;;;;;;;19.08;50.48;98822.19;5002854;28;20034;-47
2022/04/09 06:17:01;;;;;;;3.67;0.55;;;;;;;19.08;50.59;98827.47;4986798;28;20374;-49
2022/04/09 06:19:29;;;;;;;4.95;0.40;;;;;;;19.08;50.55;98824.84;5005874;28;20034;-51
2022/04/09 06:21:55;;;;;;;3.20;0.38;;;;;;;19.09;50.42;98821.16;5008143;28;20044;-49
2022/04/09 06:24:20;;;;;;;2.65;0.45;;;;;;;19.08;50.49;98828.28;5008084;28;20521;-49
2022/04/09 06:26:46;;;;;;;3.03;0.43;;;;;;;19.08;50.45;98816.94;5008801;28;20022;-56
2022/04/09 06:29:11;;;;;;;4.60;0.40;;;;;;;19.08;50.47;98822.19;4996950;28;20057;-48
2022/04/09 06:31:37;;;;;;;4.53;0.40;;;;;;;19.07;50.45;98821.41;4988917;28;20026;-49
2022/04/09 06:34:02;;;;;;;3.92;0.38;;;;;;;19.06;50.43;98830.38;4999726;28;20044;-54
2022/04/09 06:36:28;;;;;;;4.45;0.60;;;;;;;19.07;50.39;98831.97;5008564;28;20037;-59
2022/04/09 06:38:53;;;;;;;2.13;0.35;;;;;;;19.07;50.37;98833.81;5008450;28;20029;-51
2022/04/09 06:41:19;;;;;;;4.15;0.40;;;;;;;19.06;50.42;98835.63;5008420;28;20033;-48
2022/04/09 06:43:46;;;;;;;3.55;0.55;;;;;;;19.07;50.43;98831.16;4995788;28;20038;-48
2022/04/09 06:46:11;;;;;;;3.97;0.30;;;;;;;19.06;50.36;98829.56;4996452;28;20038;-53
2022/04/09 06:48:38;;;;;;;3.33;0.50;;;;;;;19.05;50.47;98834.03;5005435;28;20161;-54
2022/04/09 06:51:04;;;;;;;3.25;0.60;;;;;;;19.04;50.56;98834.28;5007484;28;20141;-46
2022/04/09 06:53:29;;;;;;;2.55;0.40;;;;;;;19.06;50.48;98842.75;5007277;28;20054;-54
2022/04/09 06:55:55;;;;;;;1.60;0.40;;;;;;;19.06;50.43;98846.19;5007037;28;20397;-48
2022/04/09 06:58:20;;;;;;;4.35;0.50;;;;;;;19.06;50.46;98850.69;4998668;28;20037;-52
2022/04/09 07:00:46;;;;;;;3.90;0.43;;;;;;;19.07;50.48;98839.09;4990553;28;20030;-56
2022/04/09 07:03:12;;;;;;;2.55;0.60;;;;;;;19.08;50.35;98848.59;5007456;28;20065;-47
2022/04/09 07:05:38;;;;;;;2.67;0.65;;;;;;;19.08;50.36;98852.03;5008243;28;20034;-53
2022/04/09 07:08:07;;;;;;;5.30;0.47;;;;;;;19.08;50.68;98859.97;5007211;28;20054;-54
2022/04/09 07:10:33;;;;;;;6.95;1.02;;;;;;;19.08;51.15;98867.88;5008101;28;20075;-50
2022/04/09 07:12:59;;;;;;;2.58;0.70;;;;;;;19.11;51.39;98869.25;5005056;28;20832;-46
2022/04/09 07:15:24;;;;;;;6.10;0.60;;;;;;;19.12;51.98;98868.19;5006549;28;20428;-51
2022/04/09 07:17:50;;;;;;;10.95;0.98;;;;;;;19.14;52.09;98871.41;5007664;28;20112;-49
2022/04/09 07:20:16;;;;;;;5.68;0.80;;;;;;;19.15;52.30;98875.66;5007014;28;20053;-47
2022/04/09 07:22:41;;;;;;;9.93;0.80;;;;;;;19.16;52.62;98872.78;5006315;28;20382;-47
2022/04/09 07:25:08;;;;;;;6.43;0.90;;;;;;;19.18;52.81;98880.44;5006137;28;20022;-55
2022/04/09 07:27:41;;;;;;;6.53;0.57;;;;;;;19.19;53.11;98879.41;5005956;28;20523;-53
2022/04/09 07:30:13;;;;;;;7.13;0.98;;;;;;;19.19;53.58;98880.22;4988259;28;20045;-56
2022/04/09 07:32:40;;;;;;;2.60;0.90;;;;;;;19.22;54.41;98874.47;4990428;28;20026;-50
2022/04/09 07:35:08;;;;;;;9.93;1.65;;;;;;;19.21;54.26;98886.06;5006172;28;20042;-48
2022/04/09 07:37:39;;;;;;;1.83;0.40;;;;;;;19.20;54.01;98879.19;5006956;28;20396;-56
2022/04/09 07:40:05;;;;;;;2.40;0.40;;;;;;;19.20;53.86;98887.09;5006874;28;20046;-49
2022/04/09 07:42:30;;;;;;;7.63;0.45;;;;;;;19.19;53.74;98882.84;5006008;28;20148;-57
2022/04/09 07:44:56;;;;;;;3.40;0.57;;;;;;;19.18;53.42;98885.72;5006767;28;20117;-57
2022/04/09 07:47:21;;;;;;;3.25;0.30;;;;;;;19.16;53.46;98885.97;5006986;28;20034;-53
2022/04/09 07:49:49;;;;;;;4.47;0.47;;;;;;;19.15;53.35;98899.41;5006860;28;20025;-54
2022/04/09 07:52:14;;;;;;;4.53;0.50;;;;;;;19.16;53.66;98904.44;5006893;28;20444;-47
2022/04/09 07:54:40;;;;;;;4.57;0.52;;;;;;;19.18;53.82;98907.66;5005973;28;20561;-50
2022/04/09 07:57:05;;;;;;;2.05;0.50;;;;;;;19.17;53.75;98907.88;5006701;28;20033;-55
2022/04/09 07:59:31;;;;;;;5.07;0.82;;;;;;;19.16;53.44;98911.56;4989693;28;20372;-56
2022/04/09 08:01:57;;;;;;;4.55;0.50;;;;;;;19.14;53.28;98913.66;4987011;28;20087;-56
2022/04/09 08:04:22;;;;;;;1.92;0.40;;;;;;;19.13;53.08;98912.03;5001964;28;20054;-50
2022/04/09 08:06:47;;;;;;;7.22;0.68;;;;;;;19.12;52.83;98913.88;4988516;28;20049;-52
2022/04/09 08:09:13;;;;;;;1.98;0.35;;;;;;;19.12;52.50;98908.59;4996002;28;20381;-48
2022/04/09 08:11:38;;;;;;;3.05;0.40;;;;;;;19.10;52.37;98907.22;5006427;28;20037;-52
2022/04/09 08:14:04;;;;;;;1.55;0.20;;;;;;;19.11;52.27;98906.19;5005802;28;20323;-50
2022/04/09 08:16:30;;;;;;;3.53;0.50;;;;;;;19.09;52.21;98910.91;5006741;28;20398;-57
2022/04/09 08:18:55;;;;;;;3.30;0.40;;;;;;;19.09;52.56;98910.91;5006618;28;20484;-53
2022/04/09 08:21:21;;;;;;;7.05;0.35;;;;;;;19.10;53.23;98907.22;5006933;28;20026;-45
2022/04/09 08:23:47;;;;;;;5.50;0.50;;;;;;;19.09;53.17;98916.19;5004240;28;20029;-44
2022/04/09 08:26:13;;;;;;;7.47;0.50;;;;;;;19.09;53.52;98914.34;5020724;28;20025;-44
2022/04/09 08:28:40;;;;;;;10.77;0.70;;;;;;;19.09;53.32;98924.91;4997433;28;20046;-42
2022/04/09 08:31:06;;;;;;;5.07;0.93;;;;;;;19.08;53.41;98910.13;4986618;28;20038;-45
2022/04/09 08:33:32;;;;;;;5.57;0.70;;;;;;;19.08;52.96;98914.59;4988387;28;20037;-47
2022/04/09 08:36:00;;;;;;;4.13;0.40;;;;;;;19.06;52.94;98920.09;5005193;28;20042;-53
2022/04/09 08:38:26;;;;;;;5.95;0.68;;;;;;;19.07;52.71;98926.97;5005956;28;20069;-50
2022/04/09 08:40:51;;;;;;;3.97;0.70;;;;;;;19.07;52.71;98932.25;5001650;28;20053;-48
2022/04/09 08:43:17;;;;;;;7.55;0.60;;;;;;;19.09;52.43;98930.19;5002727;28;20496;-50
2022/04/09 08:45:43;;;;;;;5.95;0.80;;;;;;;19.08;51.98;98938.34;5003026;28;20496;-45
2022/04/09 08:48:11;;;;;;;3.30;0.65;;;;;;;19.08;51.87;98936.50;5002381;28;20026;-45
2022/04/09 08:50:37;;;;;;;3.22;0.30;;;;;;;19.07;51.99;98936.75;4998219;28;20034;-53
2022/04/09 08:53:07;;;;;;;6.28;1.02;;;;;;;19.12;52.81;98935.00;5002762;28;20037;-56
2022/04/09 08:55:36;;;;;;;6.80;0.80;;;;;;;19.22;53.40;98937.03;4999859;28;20056;-51
2022/04/09 08:58:03;;;;;;;9.30;0.88;;;;;;;19.22;53.17;98947.59;5005275;28;20034;-55
2022/04/09 09:00:28;;;;;;;6.40;0.70;;;;;;;19.20;52.89;98941.75;5024326;28;20029;-50
2022/04/09 09:03:00;;;;;;;5.93;0.75;;;;;;;19.17;52.95;98947.50;5013064;28;20140;-61
2022/04/09 09:05:33;;;;;;;4.10;0.60;;;;;;;19.16;53.18;98946.69;5005150;28;20420;-52
2022/04/09 09:07:59;;;;;;;7.20;0.50;;;;;;;19.16;53.22;98948.53;5001851;28;20149;-55
2022/04/09 09:10:25;;;;;;;5.50;0.38;;;;;;;19.17;53.43;98950.94;5006311;28;20462;-57
2022/04/09 09:12:57;;;;;;;4.30;0.38;;;;;;;19.15;53.19;98950.38;5001435;28;20057;-49
2022/04/09 09:15:23;;;;;;;5.28;0.75;;;;;;;19.16;52.66;98949.31;5002238;28;20023;-48
2022/04/09 09:17:54;;;;;;;5.53;0.55;;;;;;;19.16;52.38;98948.53;5006049;28;20041;-52
2022/04/09 09:20:19;;;;;;;4.72;0.50;;;;;;;19.16;52.16;98951.16;5003195;28;20180;-47
2022/04/09 09:22:45;;;;;;;7.88;0.68;;;;;;;19.15;51.97;98945.09;5007526;28;20123;-50
2022/04/09 09:25:12;;;;;;;3.45;0.50;;;;;;;19.15;52.00;98944.28;5005109;28;20041;-45
2022/04/09 09:27:40;;;;;;;6.70;0.73;;;;;;;19.17;51.84;98948.28;5002599;28;20042;-55
2022/04/09 09:30:07;;;;;;;3.55;0.40;;;;;;;19.16;51.66;98940.59;5002297;28;20396;-52
2022/04/09 09:32:34;;;;;;;4.88;0.65;;;;;;;19.16;51.58;98943.25;5006973;28;20030;-42
2022/04/09 09:34:59;;;;;;;5.20;0.60;;;;;;;19.16;51.22;98941.41;5005644;28;20041;-54
2022/04/09 09:37:28;;;;;;;3.88;0.40;;;;;;;19.16;51.06;98949.31;5003567;28;20035;-48
2022/04/09 09:39:54;;;;;;;5.50;0.70;;;;;;;19.15;50.95;98950.38;5006761;28;20366;-46
2022/04/09 09:42:25;;;;;;;4.32;0.50;;;;;;;19.14;50.84;98953.25;5003823;28;20033;-47
2022/04/09 09:44:51;;;;;;;2.75;0.30;;;;;;;19.14;50.96;98940.84;5000374;28;20095;-59
2022/04/09 09:47:17;;;;;;;5.20;0.40;;;;;;;19.13;50.93;98946.34;5005024;28;20033;-49
2022/04/09 09:49:58;;;;;;;6.82;0.75;;;;;;;19.13;50.70;98946.34;5003071;28;20026;-54
2022/04/09 09:52:34;;;;;;;7.30;0.90;;;;;;;19.12;50.69;98934.19;5004292;28;20041;-51
2022/04/09 09:55:00;;;;;;;4.32;0.40;;;;;;;19.12;50.66;98935.00;5003552;28;20026;-47
2022/04/09 09:57:28;;;;;;;3.30;0.40;;;;;;;19.13;50.52;98933.97;5004617;28;20072;-48
2022/04/09 09:59:56;;;;;;;2.90;0.40;;;;;;;19.13;50.51;98935.81;5005735;28;20148;-50
2022/04/09 10:02:23;;;;;;;4.85;0.80;;;;;;;19.13;50.42;98936.59;5005677;28;20111;-47
2022/04/09 10:04:53;;;;;;;4.20;0.73;;;;;;;19.13;50.43;98941.06;5003879;28;20082;-58
2022/04/09 10:07:20;;;;;;;5.45;0.82;;;;;;;19.12;50.44;98934.19;4999404;28;20429;-60
2022/04/09 10:09:49;;;;;;;6.00;0.50;;;;;;;19.11;50.59;98937.88;5004613;28;20030;-53
2022/04/09 10:12:20;;;;;;;2.58;0.40;;;;;;;19.09;50.78;98938.09;5014623;28;20418;-53
2022/04/09 10:14:59;;;;;;;2.92;0.40;;;;;;;19.07;50.81;98929.63;5014646;28;20469;-59
2022/04/09 10:17:27;;;;;;;5.18;0.73;;;;;;;19.08;50.67;98928.59;5008783;28;20458;-47
2022/04/09 10:19:58;;;;;;;3.25;0.52;;;;;;;19.08;50.85;98915.38;5006576;28;20641;-48
2022/04/09 10:22:27;;;;;;;3.88;0.50;;;;;;;19.09;50.56;98918.84;5007610;28;20633;-50
2022/04/09 10:24:55;;;;;;;4.25;0.63;;;;;;;19.09;50.53;98913.56;5008053;28;20053;-59
2022/04/09 10:27:42;;;;;;;4.85;0.40;;;;;;;19.06;50.58;98914.03;5004336;28;20517;-52
2022/04/09 10:30:12;;;;;;;4.65;0.50;;;;;;;19.07;50.66;98926.19;4991329;28;20061;-57
2022/04/09 10:32:48;;;;;;;2.40;0.35;;;;;;;19.06;50.50;98932.50;4991931;28;20062;-45
2022/04/09 10:35:38;;;;;;;;;;;;;;;18.98;50.61;98922.31;5006661;28;20030;-45
2022/04/09 10:38:24;;;;;;;2.67;0.40;;;;;;;18.97;50.66;98937.34;5020136;28;19921;-45
2022/04/09 10:40:49;;;;;;;;;;;;;;;18.94;50.38;98942.28;5007521;28;20049;-51
2022/04/09 10:43:30;;;;;;;2.87;0.67;;;;;;;18.96;50.59;98941.03;5007884;28;19925;-52
2022/04/09 10:46:15;;;;;;;4.03;0.50;;;;;;;19.01;50.32;98942.97;4998056;28;20073;-60
2022/04/09 10:48:47;;;;;;;3.40;0.40;;;;;;;19.04;50.27;98943.28;5006353;28;20069;-57
2022/04/09 10:51:16;;;;;;;3.35;0.40;;;;;;;19.06;50.39;98940.41;5010965;28;20045;-51
2022/04/09 10:53:48;;;;;;;5.85;0.82;;;;;;;19.05;50.32;98944.91;5005784;28;20437;-55
2022/04/09 10:56:25;;;;;;;2.65;0.50;;;;;;;19.05;50.28;98934.34;5007902;28;20057;-42
2022/04/09 10:59:09;;;;;;;4.80;0.40;;;;;;;19.05;50.23;98944.09;5004402;28;20068;-56
2022/04/09 11:01:47;;;;;;;5.07;0.50;;;;;;;19.04;50.25;98951.22;4992634;28;20413;-53
2022/04/09 11:04:36;;;;;;;2.28;0.32;;;;;;;19.04;50.20;98956.50;4991616;28;20065;-50
2022/04/09 11:07:21;;;;;;;4.05;0.63;;;;;;;19.04;50.19;98950.41;5007686;28;20025;-58
2022/04/09 11:09:51;;;;;;;1.65;0.57;;;;;;;19.06;50.33;98956.25;5004378;28;20041;-53
2022/04/09 11:12:27;;;;;;;2.10;0.30;;;;;;;19.06;50.36;98956.25;4995201;28;20355;-54
2022/04/09 11:15:00;;;;;;;5.45;0.57;;;;;;;19.06;50.18;98946.50;4999942;28;20346;-54
2022/04/09 11:17:33;;;;;;;3.65;0.40;;;;;;;19.06;50.32;98954.41;4999016;28;20111;-52
2022/04/09 11:20:06;;;;;;;8.07;0.70;;;;;;;19.08;50.43;98943.63;4996085;28;20080;-50
2022/04/09 11:22:53;;;;;;;5.75;0.70;;;;;;;19.07;50.67;98939.38;5002887;28;20037;-49
2022/04/09 11:25:24;;;;;;;3.15;0.60;;;;;;;19.09;50.63;98940.75;5002842;28;20457;-43
2022/04/09 11:27:52;;;;;;;5.90;0.73;;;;;;;19.11;51.09;98946.59;5001579;28;20030;-46
2022/04/09 11:30:18;;;;;;;5.97;0.50;;;;;;;19.13;51.22;98952.44;5000436;28;20037;-49
2022/04/09 11:32:46;;;;;;;6.18;0.70;;;;;;;19.15;51.63;98955.66;5005847;28;20098;-45
2022/04/09 11:35:11;;;;;;;4.50;0.75;;;;;;;19.18;52.30;98971.00;5003915;28;20107;-44
2022/04/09 11:37:45;;;;;;;6.00;0.73;;;;;;;19.20;53.13;98979.50;4997153;28;20034;-39